Time;durP1;ratioP1;P1;durP2;ratioP2;P2;SDS_P1;SDS_P2;PMS_P1;PMS_P2;Temp;Humidity;BMP_temperature;BMP_pressure;BME280_temperature;BME280_humidity;BME280_pressure;Samples;Min_cycle;Max_cycle;Signal;HPM_P1;HPM_P2
2021/10/17 00:02:22;;;;;;;15.50;10.75;;;;;;;6.19;74.64;99332.81;2617782;54;20026;-64
2021/10/17 00:04:52;;;;;;;14.20;10.38;;;;;;;6.16;74.41;99328.72;2617767;54;20133;-64
2021/10/17 00:07:21;;;;;;;14.75;9.57;;;;;;;6.14;74.70;99324.56;2618222;54;20550;-64
2021/10/17 00:09:51;;;;;;;14.00;9.75;;;;;;;6.13;74.56;99322.94;2618067;54;20026;-64
2021/10/17 00:12:20;;;;;;;17.27;10.10;;;;;;;6.02;74.45;99326.59;2617169;47;20050;-64
2021/10/17 00:14:52;;;;;;;14.48;9.20;;;;;;;5.90;74.69;99323.34;2617806;54;20126;-64
2021/10/17 00:17:22;;;;;;;13.65;9.95;;;;;;;5.75;75.24;99326.63;2617938;54;20076;-64
2021/10/17 00:19:52;;;;;;;13.27;9.80;;;;;;;5.77;75.54;99327.31;2617998;54;20057;-64
2021/10/17 00:22:21;;;;;;;12.30;9.43;;;;;;;5.77;75.30;99328.16;2617742;54;20027;-64
2021/10/17 00:24:51;;;;;;;14.30;9.48;;;;;;;5.78;75.48;99329.78;2617798;54;20041;-64
2021/10/17 00:27:20;;;;;;;12.02;8.95;;;;;;;5.84;75.48;99326.56;2618656;54;20046;-64
2021/10/17 00:29:53;;;;;;;14.68;9.32;;;;;;;5.84;75.30;99326.56;2618810;54;20027;-64
2021/10/17 00:32:22;;;;;;;14.10;9.50;;;;;;;5.87;75.28;99325.44;2618010;54;20039;-64
2021/10/17 00:34:52;;;;;;;15.68;9.77;;;;;;;5.86;75.05;99316.75;2618190;47;20074;-64
2021/10/17 00:37:22;;;;;;;15.48;9.68;;;;;;;5.86;75.19;99319.38;2618626;39;20346;-65
2021/10/17 00:39:51;;;;;;;16.08;10.48;;;;;;;5.90;75.26;99320.72;2617895;47;20118;-67
2021/10/17 00:42:21;;;;;;;12.60;9.48;;;;;;;5.96;75.33;99319.34;2617939;54;20034;-65
2021/10/17 00:45:00;;;;;;;11.80;8.80;;;;;;;5.96;74.65;99319.34;2617769;47;20034;-65
2021/10/17 00:47:30;;;;;;;11.63;8.43;;;;;;;5.91;74.69;99309.25;2618207;54;20130;-65
2021/10/17 00:49:59;;;;;;;16.38;8.60;;;;;;;5.86;74.55;99308.88;2618638;54;20022;-64
2021/10/17 00:52:29;;;;;;;16.63;9.45;;;;;;;5.82;74.18;99304.91;2618235;31;20525;-65
2021/10/17 00:54:59;;;;;;;12.90;8.85;;;;;;;5.61;73.89;99305.19;2617855;54;20083;-65
2021/10/17 00:57:28;;;;;;;12.70;9.38;;;;;;;5.57;74.16;99310.88;2618486;54;20089;-65
2021/10/17 01:00:00;;;;;;;12.13;8.63;;;;;;;5.58;74.56;99315.97;2618532;54;20582;-64
2021/10/17 01:02:30;;;;;;;11.07;8.43;;;;;;;5.54;74.64;99313.78;2618300;54;20030;-66
2021/10/17 01:05:00;;;;;;;13.55;9.05;;;;;;;5.53;74.59;99307.72;2618055;54;20063;-65
2021/10/17 01:07:30;;;;;;;12.20;8.77;;;;;;;5.51;74.67;99314.94;2618498;47;20034;-65
2021/10/17 01:10:03;;;;;;;14.52;9.10;;;;;;;5.50;75.10;99318.50;2618822;47;20023;-65
2021/10/17 01:12:33;;;;;;;14.48;9.18;;;;;;;5.50;75.41;99313.25;2618684;54;20034;-65
2021/10/17 01:15:06;;;;;;;10.80;8.85;;;;;;;5.59;75.44;99312.41;2618579;54;20558;-65
2021/10/17 01:17:43;;;;;;;13.38;9.07;;;;;;;5.65;75.25;99306.53;2622795;39;20422;-65
2021/10/17 01:20:16;;;;;;;14.00;8.77;;;;;;;5.74;74.72;99311.88;2621687;54;20074;-65
2021/10/17 01:22:46;;;;;;;13.32;9.23;;;;;;;5.76;74.65;99305.50;2620653;47;20027;-65
2021/10/17 01:25:16;;;;;;;14.90;9.88;;;;;;;5.86;74.83;99305.44;2620888;54;20034;-64
2021/10/17 01:27:46;;;;;;;13.57;9.40;;;;;;;5.92;74.52;99300.44;2620498;54;20584;-65
2021/10/17 01:30:18;;;;;;;14.45;8.75;;;;;;;5.99;74.11;99303.28;2621028;39;20411;-65
2021/10/17 01:32:50;;;;;;;14.15;9.43;;;;;;;5.98;74.44;99293.75;2619989;54;20022;-65
2021/10/17 01:35:22;;;;;;;16.73;11.15;;;;;;;5.98;73.81;99296.38;2619204;54;20046;-65
2021/10/17 01:37:52;;;;;;;14.77;10.50;;;;;;;5.92;73.88;99292.56;2618072;54;20577;-65
2021/10/17 01:40:22;;;;;;;19.77;12.38;;;;;;;6.04;74.59;99295.78;2618174;54;20030;-65
2021/10/17 01:42:52;;;;;;;17.60;11.80;;;;;;;6.05;73.81;99296.63;2619207;39;20441;-65
2021/10/17 01:45:23;;;;;;;19.48;12.10;;;;;;;6.08;73.55;99289.25;2620194;47;20026;-66
2021/10/17 01:47:54;;;;;;;23.65;13.88;;;;;;;6.02;73.12;99284.59;2623740;31;20452;-65
2021/10/17 01:50:27;;;;;;;16.98;11.52;;;;;;;5.98;74.10;99292.94;2620914;39;20523;-65
2021/10/17 01:52:57;;;;;;;18.33;12.15;;;;;;;6.01;74.11;99282.97;2620569;54;20078;-65
2021/10/17 01:55:27;;;;;;;13.05;9.80;;;;;;;6.07;74.57;99279.72;2618240;47;20554;-64
2021/10/17 01:57:56;;;;;;;13.65;9.60;;;;;;;6.16;74.04;99286.72;2617741;47;20034;-65
2021/10/17 02:00:26;;;;;;;17.95;10.00;;;;;;;6.22;73.60;99284.44;2617938;47;20030;-65
2021/10/17 02:02:57;;;;;;;12.02;9.43;;;;;;;6.20;73.71;99288.06;2617735;47;20038;-65
2021/10/17 02:05:36;;;;;;;12.27;8.20;;;;;;;6.24;73.19;99278.03;2618095;39;20438;-66
2021/10/17 02:08:06;;;;;;;12.10;8.93;;;;;;;6.21;73.32;99286.25;2617875;54;20026;-65
2021/10/17 02:10:36;;;;;;;16.27;10.18;;;;;;;6.23;73.40;99286.91;2620089;54;20027;-66
2021/10/17 02:13:10;;;;;;;20.20;10.18;;;;;;;6.23;73.43;99283.44;2620631;54;20035;-66
2021/10/17 02:15:40;;;;;;;17.25;9.68;;;;;;;6.21;73.48;99283.63;2617910;47;20546;-65
2021/10/17 02:18:11;;;;;;;20.02;10.73;;;;;;;6.24;73.91;99285.09;2617578;47;20031;-65
2021/10/17 02:20:49;;;;;;;20.05;11.35;;;;;;;6.29;73.63;99281.06;2617569;51;20029;-64
2021/10/17 02:23:19;;;;;;;18.10;10.40;;;;;;;6.19;72.86;99272.44;2617461;54;20126;-65
2021/10/17 02:25:54;;;;;;;15.82;10.10;;;;;;;6.03;72.76;99267.06;2617770;49;20030;-65
2021/10/17 02:28:36;;;;;;;14.30;10.18;;;;;;;5.92;73.43;99266.34;2617663;47;20547;-65
2021/10/17 02:31:05;;;;;;;13.02;9.10;;;;;;;5.93;73.85;99267.97;2617974;39;20470;-65
2021/10/17 02:33:35;;;;;;;14.48;9.73;;;;;;;5.92;73.18;99266.34;2618474;54;20093;-65
2021/10/17 02:36:08;;;;;;;17.63;10.18;;;;;;;5.92;73.40;99263.72;2623991;54;20030;-66
2021/10/17 02:38:40;;;;;;;20.10;9.45;;;;;;;5.92;73.79;99273.38;2621145;39;20430;-65
2021/10/17 02:41:10;;;;;;;15.23;9.70;;;;;;;5.95;73.83;99271.25;2617517;54;20026;-64
2021/10/17 02:43:41;;;;;;;20.30;10.50;;;;;;;5.98;73.66;99267.50;2617425;54;20482;-65
2021/10/17 02:46:11;;;;;;;16.85;9.90;;;;;;;5.94;73.60;99267.00;2618075;54;20037;-65
2021/10/17 02:48:42;;;;;;;18.95;9.32;;;;;;;5.95;74.11;99257.31;2617351;47;20026;-65
2021/10/17 02:51:15;;;;;;;15.57;9.52;;;;;;;5.94;73.92;99264.38;2617366;54;20037;-64
2021/10/17 02:53:44;;;;;;;16.10;10.13;;;;;;;5.95;73.74;99258.13;2617557;54;20085;-64
2021/10/17 02:56:15;;;;;;;14.10;9.02;;;;;;;5.90;73.92;99263.00;2617760;47;20035;-64
2021/10/17 02:58:45;;;;;;;15.40;10.02;;;;;;;5.97;73.72;99257.19;2617436;54;20027;-64
2021/10/17 03:01:16;;;;;;;15.02;8.93;;;;;;;5.94;74.04;99250.44;2617836;39;20415;-65
2021/10/17 03:03:46;;;;;;;18.08;9.60;;;;;;;5.94;74.30;99256.50;2617398;47;20038;-64
2021/10/17 03:06:19;;;;;;;14.88;9.18;;;;;;;5.97;74.02;99262.44;2617609;54;20546;-64
2021/10/17 03:08:52;;;;;;;15.13;9.43;;;;;;;5.98;73.79;99250.94;2617722;47;20034;-64
2021/10/17 03:11:22;;;;;;;16.40;9.13;;;;;;;5.90;74.13;99252.50;2618052;54;20113;-64
2021/10/17 03:13:53;;;;;;;14.20;9.30;;;;;;;5.90;74.10;99255.13;2618295;54;20018;-64
2021/10/17 03:16:33;;;;;;;15.35;9.90;;;;;;;5.91;74.34;99255.94;2619547;54;20079;-64
2021/10/17 03:19:02;;;;;;;13.70;9.52;;;;;;;5.94;74.23;99243.38;2619541;54;20027;-64
2021/10/17 03:21:34;;;;;;;15.88;10.20;;;;;;;6.03;74.26;99248.69;2618434;51;20055;-64
2021/10/17 03:24:05;;;;;;;14.27;9.43;;;;;;;5.99;73.94;99245.53;2618017;54;20070;-64
2021/10/17 03:26:35;;;;;;;14.77;8.93;;;;;;;5.95;74.33;99242.38;2617674;46;20041;-64
2021/10/17 03:29:05;;;;;;;12.90;8.93;;;;;;;5.94;74.38;99243.38;2617432;54;20519;-64
2021/10/17 03:31:38;;;;;;;14.32;9.35;;;;;;;5.95;74.81;99236.31;2617608;54;20027;-64
2021/10/17 03:34:09;;;;;;;14.10;9.27;;;;;;;6.02;75.08;99241.78;2617597;39;20438;-64
2021/10/17 03:36:41;;;;;;;13.82;9.13;;;;;;;6.10;74.58;99249.72;2617333;47;20679;-65
2021/10/17 03:39:11;;;;;;;14.90;9.95;;;;;;;6.13;74.32;99238.94;2617407;54;20030;-64
2021/10/17 03:41:41;;;;;;;20.05;9.80;;;;;;;6.14;74.57;99244.00;2617330;54;20027;-65
2021/10/17 03:44:10;;;;;;;16.30;9.23;;;;;;;6.14;74.69;99241.38;2617179;54;20028;-64
2021/10/17 03:46:40;;;;;;;11.93;8.55;;;;;;;6.21;74.40;99244.25;2617314;54;20621;-64
2021/10/17 03:49:10;;;;;;;17.10;9.82;;;;;;;6.31;74.72;99241.50;2617508;54;20026;-64
2021/10/17 03:51:43;;;;;;;14.30;9.45;;;;;;;6.38;74.65;99237.28;2617236;54;20019;-64
2021/10/17 03:54:13;;;;;;;13.70;9.18;;;;;;;6.38;74.35;99239.91;2617030;47;20690;-65
2021/10/17 03:56:43;;;;;;;13.10;9.25;;;;;;;6.49;74.71;99246.69;2617885;39;20427;-64
2021/10/17 03:59:16;;;;;;;13.60;8.82;;;;;;;6.58;74.04;99240.53;2617373;54;20022;-64
2021/10/17 04:01:48;;;;;;;14.35;9.45;;;;;;;6.69;73.85;99237.59;2618742;39;20435;-64
2021/10/17 04:04:20;;;;;;;14.07;9.18;;;;;;;6.66;73.22;99240.56;2618277;39;20434;-64
2021/10/17 04:06:53;;;;;;;14.45;8.93;;;;;;;6.57;73.29;99231.81;2618013;54;20035;-64
2021/10/17 04:09:28;;;;;;;15.15;9.55;;;;;;;6.52;73.55;99235.88;2618066;54;20077;-64
2021/10/17 04:11:58;;;;;;;14.25;8.75;;;;;;;6.52;73.79;99233.25;2617840;54;20562;-64
2021/10/17 04:14:31;;;;;;;12.70;9.35;;;;;;;6.52;73.63;99239.31;2617977;54;20026;-65
2021/10/17 04:17:04;;;;;;;17.73;8.90;;;;;;;6.55;74.26;99236.41;2617914;47;20030;-65
2021/10/17 04:19:33;;;;;;;14.18;8.68;;;;;;;6.65;74.13;99242.38;2618029;54;20030;-65
2021/10/17 04:22:06;;;;;;;10.55;8.02;;;;;;;6.67;73.39;99229.06;2618016;39;20439;-65
2021/10/17 04:24:36;;;;;;;10.93;8.05;;;;;;;6.67;73.45;99237.78;2618234;39;20438;-65
2021/10/17 04:27:07;;;;;;;12.60;7.78;;;;;;;6.67;73.66;99235.16;2618019;54;20030;-65
2021/10/17 04:29:39;;;;;;;11.90;8.10;;;;;;;6.77;73.30;99237.63;2618284;39;20173;-65
2021/10/17 04:32:10;;;;;;;12.32;8.38;;;;;;;6.76;72.79;99237.81;2617791;54;20637;-65
2021/10/17 04:34:40;;;;;;;15.10;9.13;;;;;;;6.63;73.17;99236.44;2618809;54;20066;-65
2021/10/17 04:37:12;;;;;;;29.48;9.10;;;;;;;6.52;73.71;99238.50;2618489;54;20170;-65
2021/10/17 04:39:43;;;;;;;19.45;8.55;;;;;;;6.37;73.92;99238.28;2617997;54;20026;-65
2021/10/17 04:42:12;;;;;;;18.58;8.70;;;;;;;6.38;74.56;99250.41;2617935;47;20023;-65
2021/10/17 04:44:42;;;;;;;16.75;8.40;;;;;;;6.43;74.15;99243.72;2619893;54;20081;-65
2021/10/17 04:47:11;;;;;;;13.50;8.80;;;;;;;6.42;74.50;99242.06;2622291;54;20038;-65
2021/10/17 04:49:41;;;;;;;15.38;8.60;;;;;;;6.45;74.34;99243.56;2618170;47;20549;-65
2021/10/17 04:52:14;;;;;;;18.23;8.48;;;;;;;6.53;74.62;99240.13;2617752;54;20058;-65
2021/10/17 04:54:43;;;;;;;25.88;9.70;;;;;;;6.55;74.29;99246.91;2617961;54;20038;-65
2021/10/17 04:57:13;;;;;;;32.38;9.75;;;;;;;6.43;74.38;99246.34;2618091;54;20030;-65
2021/10/17 04:59:44;;;;;;;32.38;10.45;;;;;;;6.44;74.59;99245.34;2617984;54;20045;-65
2021/10/17 05:02:14;;;;;;;21.02;9.35;;;;;;;6.47;74.60;99246.84;2617816;54;20571;-65
2021/10/17 05:04:46;;;;;;;17.60;9.27;;;;;;;6.51;75.15;99245.56;2617976;54;20122;-65
2021/10/17 05:07:19;;;;;;;28.20;9.35;;;;;;;6.59;74.82;99248.22;2617908;54;20019;-65
2021/10/17 05:09:49;;;;;;;38.58;10.43;;;;;;;6.65;74.33;99250.25;2617889;50;20043;-65
2021/10/17 05:12:18;;;;;;;31.27;9.85;;;;;;;6.70;74.62;99249.78;2617579;54;20037;-65
2021/10/17 05:14:48;;;;;;;27.90;9.80;;;;;;;6.68;74.32;99249.91;2618428;54;20090;-65
2021/10/17 05:17:17;;;;;;;29.50;9.52;;;;;;;6.65;74.76;99254.66;2617803;47;20027;-65
2021/10/17 05:19:47;;;;;;;24.30;8.95;;;;;;;6.68;74.79;99260.44;2618562;31;20519;-65
2021/10/17 05:22:20;;;;;;;19.98;9.68;;;;;;;6.70;74.33;99257.66;2617719;54;20022;-65
2021/10/17 05:24:49;;;;;;;16.75;9.27;;;;;;;6.66;74.88;99249.25;2618780;50;20030;-65
2021/10/17 05:27:19;;;;;;;20.30;10.10;;;;;;;6.72;74.33;99258.31;2618919;47;20071;-65
2021/10/17 05:29:49;;;;;;;18.35;8.98;;;;;;;6.70;74.35;99261.09;2618381;54;20035;-65
2021/10/17 05:32:20;;;;;;;27.98;9.02;;;;;;;6.69;74.30;99263.88;2617661;47;20135;-65
2021/10/17 05:34:49;;;;;;;25.90;9.88;;;;;;;6.69;74.77;99264.72;2618395;54;20030;-65
2021/10/17 05:37:22;;;;;;;21.23;9.55;;;;;;;6.73;74.36;99259.94;2617903;54;20026;-65
2021/10/17 05:39:52;;;;;;;19.23;8.85;;;;;;;6.73;74.85;99257.31;2621009;47;20034;-65
2021/10/17 05:42:22;;;;;;;14.65;8.30;;;;;;;6.75;74.92;99259.81;2623393;54;20019;-65
2021/10/17 05:44:52;;;;;;;12.10;7.47;;;;;;;6.83;75.12;99260.69;2619106;54;20078;-65
2021/10/17 05:47:24;;;;;;;12.65;8.35;;;;;;;6.98;74.95;99258.28;2618014;47;20070;-65
2021/10/17 05:49:55;;;;;;;13.80;9.13;;;;;;;7.09;74.08;99265.03;2617952;54;20027;-65
2021/10/17 05:52:28;;;;;;;16.27;9.30;;;;;;;7.07;74.43;99259.13;2617579;47;20037;-65
2021/10/17 05:54:58;;;;;;;13.48;9.88;;;;;;;7.12;73.90;99270.00;2617673;49;20026;-65
2021/10/17 05:57:28;;;;;;;15.63;9.57;;;;;;;7.04;73.97;99269.97;2618260;39;20403;-65
2021/10/17 05:59:58;;;;;;;19.38;10.63;;;;;;;6.99;73.69;99273.06;2618395;54;20031;-65
2021/10/17 06:02:28;;;;;;;17.83;9.38;;;;;;;6.98;73.79;99275.84;2617575;54;20022;-65
2021/10/17 06:05:00;;;;;;;15.18;9.70;;;;;;;7.00;73.72;99279.97;2618058;54;20029;-66
2021/10/17 06:07:32;;;;;;;13.23;9.27;;;;;;;7.08;73.93;99284.44;2617486;54;20030;-66
2021/10/17 06:10:02;;;;;;;16.52;9.48;;;;;;;7.14;74.03;99282.00;2617936;54;20294;-65
2021/10/17 06:12:34;;;;;;;14.48;9.43;;;;;;;7.19;73.73;99289.41;2617439;54;20030;-65
2021/10/17 06:15:03;;;;;;;14.45;9.00;;;;;;;7.25;73.98;99295.84;2617729;54;20041;-65
2021/10/17 06:17:33;;;;;;;21.05;9.77;;;;;;;7.29;73.45;99291.91;2617560;47;20551;-65
2021/10/17 06:20:03;;;;;;;14.52;8.00;;;;;;;7.18;73.31;99296.47;2617507;54;20027;-65
2021/10/17 06:22:38;;;;;;;16.63;8.70;;;;;;;7.14;73.63;99302.19;2617164;54;20570;-65
2021/10/17 06:25:09;;;;;;;10.55;8.20;;;;;;;7.10;72.82;99300.84;2617546;54;20542;-65
2021/10/17 06:27:38;;;;;;;12.68;8.80;;;;;;;6.95;72.92;99300.66;2618009;39;20414;-65
2021/10/17 06:30:08;;;;;;;12.20;8.50;;;;;;;6.86;73.68;99306.84;2617629;54;20597;-65
2021/10/17 06:32:38;;;;;;;14.23;9.35;;;;;;;6.86;73.81;99306.84;2617388;47;20023;-64
2021/10/17 06:35:09;;;;;;;13.43;8.98;;;;;;;6.85;73.82;99311.25;2618265;54;20041;-65
2021/10/17 06:37:41;;;;;;;15.50;10.77;;;;;;;6.88;74.08;99312.75;2617556;54;20043;-65
2021/10/17 06:40:13;;;;;;;11.57;8.85;;;;;;;6.89;74.10;99312.59;2617733;54;20030;-65
2021/10/17 06:42:42;;;;;;;16.73;9.18;;;;;;;6.94;74.08;99315.59;2617316;54;20154;-65
2021/10/17 06:45:29;;;;;;;11.45;8.82;;;;;;;6.98;73.93;99317.88;2617724;54;20022;-65
2021/10/17 06:47:59;;;;;;;15.32;9.00;;;;;;;6.99;73.99;99319.56;2618227;39;20399;-65
2021/10/17 06:50:29;;;;;;;11.70;8.00;;;;;;;7.02;74.25;99325.34;2617570;54;20553;-65
2021/10/17 06:53:02;;;;;;;11.52;7.15;;;;;;;7.03;74.07;99316.47;2617125;47;20030;-65
2021/10/17 06:55:32;;;;;;;9.75;7.90;;;;;;;7.10;74.26;99322.75;2617165;47;20035;-65
2021/10/17 06:58:02;;;;;;;8.82;7.15;;;;;;;7.16;73.97;99327.34;2617557;47;20037;-65
2021/10/17 07:00:33;;;;;;;11.55;8.15;;;;;;;7.20;74.00;99323.44;2617555;54;20031;-65
2021/10/17 07:03:04;;;;;;;9.38;7.07;;;;;;;7.27;73.54;99328.91;2617623;39;20120;-65
2021/10/17 07:05:41;;;;;;;10.73;7.82;;;;;;;7.33;73.14;99330.06;2617603;39;20307;-65
2021/10/17 07:08:13;;;;;;;12.27;9.07;;;;;;;7.29;73.16;99333.97;2617416;54;20027;-65
2021/10/17 07:10:43;;;;;;;10.18;8.20;;;;;;;7.29;72.83;99329.53;2618233;39;20443;-65
2021/10/17 07:13:31;;;;;;;11.38;9.40;;;;;;;7.29;72.95;99326.91;2617845;54;20051;-65
2021/10/17 07:16:01;;;;;;;11.73;8.82;;;;;;;7.31;73.19;99335.47;2617387;51;20022;-65
2021/10/17 07:18:30;;;;;;;11.18;8.38;;;;;;;7.31;73.16;99334.66;2617628;54;20030;-65
2021/10/17 07:21:02;;;;;;;13.57;9.50;;;;;;;7.32;73.17;99336.31;2617610;51;20035;-65
2021/10/17 07:23:34;;;;;;;11.52;9.10;;;;;;;7.27;73.13;99339.41;2617073;54;20038;-64
2021/10/17 07:26:04;;;;;;;13.57;8.90;;;;;;;7.32;73.35;99336.31;2617700;54;20049;-63
2021/10/17 07:28:34;;;;;;;13.68;9.20;;;;;;;7.35;73.41;99342.06;2618008;54;20032;-66
2021/10/17 07:31:08;;;;;;;;;;;;;;;7.42;73.10;99347.50;2618113;54;20047;-64
2021/10/17 07:34:00;;;;;;;112.55;42.67;;;;;;;7.51;73.12;99343.94;2622229;54;19957;-64
2021/10/17 07:36:30;;;;;;;29.95;16.27;;;;;;;7.64;72.77;99346.94;2620404;54;20028;-65
2021/10/17 07:39:22;;;;;;;18.10;11.07;;;;;;;7.74;72.95;99345.97;2619214;39;20430;-63
2021/10/17 07:41:54;;;;;;;22.42;12.27;;;;;;;7.85;72.63;99348.28;2617634;47;20047;-65
2021/10/17 07:44:24;;;;;;;18.67;12.75;;;;;;;7.95;72.77;99341.06;2617505;54;20522;-64
2021/10/17 07:47:12;;;;;;;18.70;10.65;;;;;;;7.99;71.94;99334.47;2618422;46;20056;-63
2021/10/17 07:49:53;;;;;;;17.45;10.73;;;;;;;8.00;72.69;99335.31;2617455;47;20022;-65
2021/10/17 07:52:26;;;;;;;14.48;10.50;;;;;;;8.06;72.16;99337.31;2617294;54;20030;-64
2021/10/17 07:54:59;;;;;;;19.55;11.77;;;;;;;8.18;72.48;99336.81;2617241;47;20118;-64
2021/10/17 07:57:50;;;;;;;18.60;11.52;;;;;;;8.33;71.89;99337.00;2617409;54;20026;-64
2021/10/17 08:00:21;;;;;;;14.65;10.15;;;;;;;8.50;72.55;99337.00;2617230;47;20029;-64
2021/10/17 14:38:38;;;;;;;22.48;16.02;;;;;;;12.54;65.96;99250.72;2605233;46;20030;-65
2021/10/17 14:41:08;;;;;;;22.88;14.68;;;;;;;12.50;65.60;99259.25;2617387;54;20147;-65
2021/10/17 14:43:37;;;;;;;24.73;16.33;;;;;;;12.49;66.09;99260.25;2618399;39;20546;-64
2021/10/17 14:46:07;;;;;;;22.83;15.52;;;;;;;12.45;65.97;99259.00;2617989;54;20609;-65
2021/10/17 14:48:37;;;;;;;22.13;14.65;;;;;;;12.43;65.90;99266.34;2618137;54;20082;-65
2021/10/17 14:51:06;;;;;;;27.08;15.77;;;;;;;12.42;66.31;99267.38;2617797;54;20023;-65
2021/10/17 14:53:38;;;;;;;20.65;15.02;;;;;;;12.31;65.98;99266.06;2618039;54;20070;-65
2021/10/17 14:56:08;;;;;;;22.02;15.13;;;;;;;12.23;66.24;99277.63;2617619;47;20106;-65
2021/10/17 14:58:37;;;;;;;22.90;16.13;;;;;;;12.26;66.55;99268.47;2617560;54;20121;-65
2021/10/17 15:01:08;;;;;;;21.38;15.10;;;;;;;12.20;66.67;99277.97;2618816;39;20451;-64
2021/10/17 15:03:39;;;;;;;22.02;15.15;;;;;;;12.18;66.84;99273.91;2618491;54;20041;-65
2021/10/17 15:06:09;;;;;;;22.50;15.68;;;;;;;12.20;66.76;99271.88;2617746;54;20026;-65
2021/10/17 15:08:41;;;;;;;26.08;19.15;;;;;;;12.22;66.64;99275.16;2618154;54;20069;-65
2021/10/17 15:11:10;;;;;;;30.00;20.02;;;;;;;12.25;66.60;99277.44;2618849;54;20026;-65
2021/10/17 15:13:40;;;;;;;37.75;25.02;;;;;;;12.22;66.61;99268.03;2618096;39;20462;-65
2021/10/17 15:16:09;;;;;;;29.05;19.80;;;;;;;12.27;66.81;99276.22;2618959;47;20034;-64
2021/10/17 15:18:43;;;;;;;31.10;20.60;;;;;;;12.34;66.82;99271.78;2621989;47;20031;-63
2021/10/17 15:21:13;;;;;;;26.15;16.70;;;;;;;12.36;66.45;99272.41;2621901;54;20609;-64
2021/10/17 15:23:45;;;;;;;33.78;20.15;;;;;;;12.48;66.43;99272.69;2618962;54;20149;-65
2021/10/17 15:26:14;;;;;;;28.35;19.13;;;;;;;12.50;66.23;99260.09;2618447;54;20586;-64
2021/10/17 15:28:45;;;;;;;21.65;16.58;;;;;;;12.40;66.21;99257.75;2618764;31;20542;-65
2021/10/17 15:31:16;;;;;;;22.77;16.80;;;;;;;12.33;67.11;99259.56;2618318;39;20094;-65
2021/10/17 15:33:46;;;;;;;23.92;16.67;;;;;;;12.35;67.09;99262.00;2617787;54;20065;-64
2021/10/17 15:36:16;;;;;;;22.88;16.98;;;;;;;12.32;66.67;99252.59;2617963;54;20706;-64
2021/10/17 15:38:48;;;;;;;22.02;16.25;;;;;;;12.36;67.12;99261.81;2618223;39;20409;-64
2021/10/17 15:41:17;;;;;;;20.27;14.82;;;;;;;12.35;66.64;99264.66;2617940;54;20125;-64
2021/10/17 15:43:47;;;;;;;25.70;16.92;;;;;;;12.35;67.04;99267.31;2617776;54;20105;-63
2021/10/17 15:46:16;;;;;;;23.00;16.23;;;;;;;12.34;66.91;99274.44;2618203;54;20094;-65
2021/10/17 15:48:46;;;;;;;22.45;14.95;;;;;;;12.23;66.71;99282.91;2617735;39;20419;-65
2021/10/17 15:51:15;;;;;;;19.33;15.25;;;;;;;12.15;67.06;99277.75;2617351;54;20034;-65
2021/10/17 15:53:47;;;;;;;18.85;14.10;;;;;;;12.09;67.49;99286.47;2617651;54;20038;-65
2021/10/17 15:56:17;;;;;;;24.70;17.17;;;;;;;12.06;67.07;99285.00;2617956;54;20086;-65
2021/10/17 15:58:47;;;;;;;20.48;16.38;;;;;;;11.97;67.62;99293.28;2617709;47;20030;-65
2021/10/17 16:01:16;;;;;;;24.02;16.70;;;;;;;11.88;67.60;99282.81;2617224;54;20170;-65
2021/10/17 16:03:46;;;;;;;19.83;14.48;;;;;;;11.81;68.15;99289.03;2617843;54;20038;-66
2021/10/17 16:06:15;;;;;;;21.50;14.98;;;;;;;11.82;68.83;99290.66;2617262;54;20569;-64
2021/10/17 16:08:48;;;;;;;22.98;15.88;;;;;;;11.90;68.26;99288.72;2617976;54;20035;-65
2021/10/17 16:11:18;;;;;;;24.00;15.93;;;;;;;11.88;68.60;99297.91;2618036;54;20065;-65
2021/10/17 16:13:47;;;;;;;22.00;15.95;;;;;;;11.82;68.00;99306.56;2617916;54;20126;-64
2021/10/17 16:16:17;;;;;;;22.52;15.98;;;;;;;11.73;68.50;99302.38;2617950;54;20125;-64
2021/10/17 16:18:47;;;;;;;20.80;13.98;;;;;;;11.73;68.83;99303.22;2617794;54;20629;-65
2021/10/17 16:21:17;;;;;;;21.42;16.27;;;;;;;11.73;68.71;99302.38;2618011;54;20138;-64
2021/10/17 16:23:49;;;;;;;20.52;14.88;;;;;;;11.72;69.35;99309.53;2617632;54;20130;-65
2021/10/17 16:26:19;;;;;;;25.20;15.77;;;;;;;11.71;69.07;99309.69;2618879;54;20038;-65
2021/10/17 16:28:48;;;;;;;20.55;15.70;;;;;;;11.72;69.08;99312.16;2618866;54;20054;-64
2021/10/17 16:31:24;;;;;;;23.52;16.70;;;;;;;11.77;69.24;99319.53;2618908;54;20167;-66
2021/10/17 16:33:54;;;;;;;22.27;16.80;;;;;;;11.81;68.94;99320.81;2617769;54;20077;-64
2021/10/17 16:36:25;;;;;;;22.00;17.05;;;;;;;11.80;69.15;99316.53;2617846;54;20130;-65
2021/10/17 16:38:57;;;;;;;19.20;15.27;;;;;;;11.82;69.34;99317.16;2617792;54;20581;-65
2021/10/17 16:41:26;;;;;;;26.05;18.95;;;;;;;11.74;69.55;99320.72;2617812;54;20053;-65
2021/10/17 16:43:56;;;;;;;25.52;19.10;;;;;;;11.61;69.48;99307.34;2616972;47;20034;-65
2021/10/17 16:46:26;;;;;;;23.65;17.02;;;;;;;11.47;69.88;99313.47;2616964;54;20034;-64
2021/10/17 16:48:55;;;;;;;27.52;17.67;;;;;;;11.31;70.18;99318.00;2617841;54;20195;-63
2021/10/17 16:51:25;;;;;;;23.95;17.30;;;;;;;11.32;70.86;99324.13;2617833;54;20077;-64
2021/10/17 16:53:57;;;;;;;21.70;16.75;;;;;;;11.30;70.74;99321.63;2617530;54;20066;-64
2021/10/17 16:56:26;;;;;;;25.02;16.45;;;;;;;11.31;70.95;99322.47;2617761;54;20094;-65
2021/10/17 16:58:56;;;;;;;23.00;17.42;;;;;;;11.29;70.58;99325.28;2617473;54;20129;-65
2021/10/17 17:01:25;;;;;;;34.65;22.83;;;;;;;11.30;70.49;99328.75;2617639;54;20036;-66
2021/10/17 17:03:55;;;;;;;24.45;18.10;;;;;;;11.23;71.26;99330.53;2617883;39;20430;-65
2021/10/17 17:06:25;;;;;;;23.33;18.27;;;;;;;11.18;71.55;99332.88;2617628;54;20080;-64
2021/10/17 17:08:57;;;;;;;25.05;17.33;;;;;;;11.19;71.38;99332.72;2617562;47;20045;-64
2021/10/17 17:11:26;;;;;;;20.90;15.95;;;;;;;11.25;71.25;99329.31;2618724;39;20488;-65
2021/10/17 17:13:56;;;;;;;20.98;14.30;;;;;;;11.33;71.41;99337.16;2618257;54;20031;-64
2021/10/17 17:16:25;;;;;;;19.23;15.70;;;;;;;11.33;71.13;99334.50;2618052;54;20159;-64
2021/10/17 17:18:59;;;;;;;;;;;;;;;11.28;71.51;99333.44;2618700;54;20133;-64
2021/10/17 17:21:29;;;;;;;19.67;15.35;;;;;;;11.25;71.43;99339.09;2618724;54;20487;-63
2021/10/17 17:24:01;;;;;;;20.55;14.98;;;;;;;11.25;71.49;99337.25;2617854;47;20145;-63
2021/10/17 17:26:30;;;;;;;20.63;15.02;;;;;;;11.25;71.79;99339.91;2618382;54;20149;-64
2021/10/17 17:29:00;;;;;;;20.63;15.85;;;;;;;11.23;71.94;99344.56;2619353;31;20473;-64
2021/10/17 17:31:29;;;;;;;23.80;16.92;;;;;;;11.16;71.95;99352.41;2618501;54;20078;-65
2021/10/17 17:33:59;;;;;;;19.85;15.55;;;;;;;11.07;71.75;99347.41;2617659;47;20039;-66
2021/10/17 17:36:29;;;;;;;24.55;18.48;;;;;;;10.90;72.51;99354.69;2618454;54;20086;-65
2021/10/17 17:39:01;;;;;;;21.85;16.17;;;;;;;10.78;72.98;99356.97;2618501;54;20055;-64
2021/10/17 17:41:30;;;;;;;24.75;17.20;;;;;;;10.85;73.37;99359.69;2617836;47;20026;-64
2021/10/17 17:44:00;;;;;;;25.95;19.17;;;;;;;10.91;72.96;99354.50;2617858;47;20030;-64
2021/10/17 17:46:29;;;;;;;36.25;23.67;;;;;;;10.81;72.89;99355.75;2618806;54;20038;-64
2021/10/17 17:48:59;;;;;;;35.47;22.88;;;;;;;10.66;73.12;99359.22;2618834;54;20041;-65
2021/10/17 17:51:28;;;;;;;31.45;21.67;;;;;;;10.58;73.65;99366.41;2618531;54;20053;-65
2021/10/17 17:54:00;;;;;;;30.05;20.33;;;;;;;10.53;73.55;99369.59;2618242;54;20061;-65
2021/10/17 17:56:30;;;;;;;26.90;17.95;;;;;;;10.53;73.85;99374.03;2618713;54;20031;-65
2021/10/17 17:59:00;;;;;;;20.42;14.73;;;;;;;10.57;73.61;99376.16;2618392;54;20066;-65
2021/10/17 18:01:29;;;;;;;18.15;13.73;;;;;;;10.63;73.21;99378.06;2618337;54;20300;-65
2021/10/17 18:03:59;;;;;;;25.40;14.50;;;;;;;10.67;72.89;99375.91;2618386;54;20038;-65
2021/10/17 18:06:29;;;;;;;25.55;14.93;;;;;;;10.66;72.94;99380.38;2618426;54;20034;-65
2021/10/17 18:09:01;;;;;;;20.45;15.20;;;;;;;10.62;73.26;99376.44;2618430;54;20576;-65
2021/10/17 18:11:31;;;;;;;29.08;23.60;;;;;;;10.52;73.28;99386.41;2617779;47;20033;-65
2021/10/17 18:14:01;;;;;;;40.20;33.03;;;;;;;10.27;73.30;99390.25;2618577;54;20081;-66
2021/10/17 18:16:31;;;;;;;40.42;31.10;;;;;;;10.18;74.05;99386.81;2619288;54;20573;-64
2021/10/17 18:19:00;;;;;;;38.40;27.23;;;;;;;10.08;74.06;99386.22;2619150;54;20034;-65
2021/10/17 18:21:30;;;;;;;28.65;21.67;;;;;;;9.97;74.77;99387.47;2619313;54;20795;-65